createdAt,value
2023-02-22T00:01:00.279Z,100.00
2023-02-22T00:03:32.539Z,100.00
2023-02-22T00:06:05.405Z,100.00
2023-02-22T00:08:35.781Z,100.00
2023-02-22T00:11:08.795Z,100.00
2023-02-22T00:13:37.278Z,100.00
2023-02-22T00:16:05.117Z,100.00
2023-02-22T00:18:32.127Z,100.00
2023-02-22T00:21:01.160Z,100.00
2023-02-22T00:23:30.876Z,100.00
2023-02-22T00:25:59.525Z,100.00
2023-02-22T00:28:27.062Z,100.00
2023-02-22T00:30:55.200Z,100.00
2023-02-22T00:33:23.383Z,100.00
2023-02-22T00:35:50.470Z,100.00
2023-02-22T00:38:19.868Z,100.00
2023-02-22T00:40:47.092Z,100.00
2023-02-22T00:43:16.924Z,100.00
2023-02-22T00:45:44.285Z,100.00
2023-02-22T00:48:11.502Z,100.00
2023-02-22T00:50:39.420Z,100.00
2023-02-22T00:53:07.927Z,100.00
2023-02-22T00:55:37.823Z,100.00
2023-02-22T00:58:07.149Z,100.00
2023-02-22T01:00:41.818Z,100.00
2023-02-22T01:03:11.646Z,100.00
2023-02-22T01:05:39.449Z,100.00
2023-02-22T01:08:08.804Z,100.00
2023-02-22T01:10:37.460Z,100.00
2023-02-22T01:13:09.415Z,100.00
2023-02-22T01:15:40.383Z,100.00
2023-02-22T01:18:08.663Z,100.00
2023-02-22T01:20:35.921Z,100.00
2023-02-22T01:23:07.993Z,100.00
2023-02-22T01:25:36.056Z,100.00
2023-02-22T01:28:05.132Z,100.00
2023-02-22T01:30:35.444Z,100.00
2023-02-22T01:33:05.057Z,100.00
2023-02-22T01:35:35.965Z,100.00
2023-02-22T01:38:03.560Z,100.00
2023-02-22T01:40:35.825Z,100.00
2023-02-22T01:43:19.604Z,100.00
2023-02-22T01:45:58.318Z,100.00
2023-02-22T01:48:38.776Z,100.00
2023-02-22T01:51:12.233Z,100.00
2023-02-22T01:54:02.302Z,100.00
2023-02-22T01:56:33.031Z,100.00
2023-02-22T01:59:03.759Z,100.00
2023-02-22T02:01:31.092Z,100.00
2023-02-22T02:04:00.499Z,100.00
2023-02-22T02:06:31.964Z,100.00
2023-02-22T02:09:43.967Z,100.00
2023-02-22T02:12:14.433Z,100.00
2023-02-22T02:14:44.121Z,100.00
2023-02-22T02:17:18.207Z,100.00
2023-02-22T02:20:07.454Z,100.00
2023-02-22T02:22:43.759Z,100.00
2023-02-22T02:26:10.128Z,100.00
2023-02-22T02:29:07.140Z,100.00
2023-02-22T02:31:53.241Z,100.00
2023-02-22T02:34:42.116Z,100.00
2023-02-22T02:37:18.334Z,100.00
2023-02-22T02:40:11.790Z,100.00
2023-02-22T02:42:51.739Z,100.00
2023-02-22T02:45:26.920Z,100.00
2023-02-22T02:47:58.998Z,100.00
2023-02-22T02:50:32.346Z,100.00
2023-02-22T02:53:05.960Z,100.00
2023-02-22T02:55:36.847Z,100.00
2023-02-22T02:58:08.645Z,100.00
2023-02-22T03:00:41.396Z,100.00
2023-02-22T03:03:27.475Z,100.00
2023-02-22T03:06:06.769Z,100.00
2023-02-22T03:08:45.396Z,100.00
2023-02-22T03:11:20.174Z,100.00
2023-02-22T03:14:03.174Z,100.00
2023-02-22T03:16:52.421Z,100.00
2023-02-22T03:19:33.482Z,100.00
2023-02-22T03:22:04.338Z,100.00
2023-02-22T03:24:37.649Z,100.00
2023-02-22T03:27:15.726Z,100.00
2023-02-22T03:29:51.404Z,100.00
2023-02-22T03:32:23.856Z,100.00
2023-02-22T03:35:03.108Z,100.00
2023-02-22T03:37:35.439Z,100.00
2023-02-22T03:40:16.160Z,100.00
2023-02-22T03:42:51.338Z,100.00
2023-02-22T03:45:25.492Z,100.00
2023-02-22T03:48:03.734Z,100.00
2023-02-22T03:50:35.906Z,100.00
2023-02-22T03:53:05.678Z,100.00
2023-02-22T03:55:35.966Z,100.00
2023-02-22T03:58:10.552Z,100.00
2023-02-22T04:00:39.141Z,100.00
2023-02-22T04:03:06.328Z,100.00
2023-02-22T04:05:33.850Z,100.00
2023-02-22T04:08:01.753Z,100.00
2023-02-22T04:10:31.078Z,100.00
2023-02-22T04:12:59.405Z,100.00
2023-02-22T04:15:27.258Z,100.00
2023-02-22T04:18:01.333Z,100.00
2023-02-22T04:20:28.586Z,100.00
2023-02-22T04:22:58.662Z,100.00
2023-02-22T04:25:26.948Z,100.00
2023-02-22T04:27:54.956Z,100.00
2023-02-22T04:30:34.442Z,100.00
2023-02-22T04:33:03.573Z,100.00
2023-02-22T04:35:30.605Z,100.00
2023-02-22T04:37:58.614Z,100.00
2023-02-22T04:40:25.672Z,100.00
2023-02-22T04:42:53.016Z,100.00
2023-02-22T04:45:20.301Z,100.00
2023-02-22T04:47:47.956Z,100.00
2023-02-22T04:50:16.443Z,100.00
2023-02-22T04:52:44.381Z,100.00
2023-02-22T04:55:12.288Z,100.00
2023-02-22T04:57:40.001Z,100.00
2023-02-22T05:00:09.713Z,100.00
2023-02-22T05:02:41.081Z,100.00
2023-02-22T05:05:08.998Z,100.00
2023-02-22T05:07:36.741Z,100.00
2023-02-22T05:10:04.270Z,100.00
2023-02-22T05:12:31.261Z,100.00
2023-02-22T05:14:58.875Z,100.00
2023-02-22T05:17:25.854Z,100.00
2023-02-22T05:19:53.453Z,100.00
2023-02-22T05:22:20.644Z,100.00
2023-02-22T05:24:48.550Z,100.00
2023-02-22T05:27:15.531Z,100.00
2023-02-22T05:29:42.793Z,100.00
2023-02-22T05:32:10.149Z,100.00
2023-02-22T05:34:37.416Z,100.00
2023-02-22T05:37:05.297Z,100.00
2023-02-22T05:39:33.077Z,100.00
2023-02-22T05:42:00.520Z,100.00
2023-02-22T05:44:28.207Z,100.00
2023-02-22T05:46:55.684Z,100.00
2023-02-22T05:49:22.711Z,100.00
2023-02-22T05:51:50.969Z,100.00
2023-02-22T05:54:17.897Z,100.00
2023-02-22T05:56:45.286Z,100.00
2023-02-22T05:59:12.875Z,100.00
2023-02-22T06:01:40.313Z,100.00
2023-02-22T06:04:07.295Z,100.00
2023-02-22T06:06:34.765Z,100.00
2023-02-22T06:09:02.047Z,100.00
2023-02-22T06:11:29.055Z,100.00
2023-02-22T06:13:56.153Z,100.00
2023-02-22T06:16:24.487Z,100.00
2023-02-22T06:18:51.799Z,100.00
2023-02-22T06:21:19.659Z,100.00
2023-02-22T06:23:47.141Z,100.00
2023-02-22T06:26:17.196Z,100.00
2023-02-22T06:28:44.300Z,100.00
2023-02-22T06:31:11.447Z,100.00
2023-02-22T06:33:38.547Z,100.00
2023-02-22T06:36:05.887Z,100.00
2023-02-22T06:38:33.491Z,100.00
2023-02-22T06:41:00.593Z,100.00
2023-02-22T06:43:27.716Z,100.00
2023-02-22T06:45:54.801Z,100.00
2023-02-22T06:48:21.879Z,100.00
2023-02-22T06:50:48.843Z,100.00
2023-02-22T06:53:16.327Z,100.00
2023-02-22T06:55:43.898Z,100.00
2023-02-22T06:58:10.873Z,100.00
2023-02-22T07:00:37.962Z,100.00
2023-02-22T07:03:05.314Z,100.00
2023-02-22T07:05:32.446Z,100.00
2023-02-22T07:08:05.755Z,100.00
2023-02-22T07:10:35.216Z,100.00
2023-02-22T07:13:03.722Z,100.00
2023-02-22T07:15:32.886Z,100.00
2023-02-22T07:18:02.542Z,100.00
2023-02-22T07:20:31.298Z,100.00
2023-02-22T07:22:58.334Z,100.00
2023-02-22T07:25:25.749Z,100.00
2023-02-22T07:27:53.168Z,100.00
2023-02-22T07:30:31.410Z,100.00
2023-02-22T07:33:00.891Z,100.00
2023-02-22T07:35:30.519Z,100.00
2023-02-22T07:37:57.853Z,100.00
2023-02-22T07:40:26.590Z,100.00
2023-02-22T07:43:01.478Z,100.00
2023-02-22T07:45:31.277Z,100.00
2023-02-22T07:47:59.729Z,100.00
2023-02-22T07:50:30.311Z,100.00
2023-02-22T07:52:58.779Z,100.00
2023-02-22T07:55:28.579Z,100.00
2023-02-22T07:57:59.644Z,100.00
2023-02-22T08:00:32.802Z,100.00
2023-02-22T08:03:01.781Z,100.00
2023-02-22T08:05:30.115Z,100.00
2023-02-22T08:07:57.261Z,100.00
2023-02-22T08:10:26.063Z,98.99
2023-02-22T08:12:54.092Z,97.39
2023-02-22T08:15:36.886Z,94.80
2023-02-22T08:18:09.271Z,92.23
2023-02-22T08:20:38.139Z,90.09
2023-02-22T08:23:06.822Z,87.87
2023-02-22T08:25:34.506Z,87.64
2023-02-22T08:28:05.741Z,85.56
2023-02-22T08:30:35.167Z,84.72
2023-02-22T08:33:03.435Z,79.40
2023-02-22T08:35:32.673Z,81.84
2023-02-22T08:38:04.672Z,80.11
2023-02-22T08:40:35.473Z,77.33
2023-02-22T08:43:03.685Z,79.90
2023-02-22T08:45:31.112Z,81.13
2023-02-22T08:47:59.704Z,76.35
2023-02-22T08:50:35.918Z,77.37
2023-02-22T08:53:05.380Z,75.04
2023-02-22T08:55:35.091Z,74.57
2023-02-22T08:58:03.334Z,71.44
2023-02-22T09:00:33.525Z,69.73
2023-02-22T09:03:02.162Z,66.96
2023-02-22T09:05:31.430Z,66.27
2023-02-22T09:07:59.396Z,66.16
2023-02-22T09:10:30.319Z,65.90
2023-02-22T09:13:01.082Z,64.50
2023-02-22T09:15:29.590Z,64.72
2023-02-22T09:17:57.293Z,63.91
2023-02-22T09:20:25.163Z,63.36
2023-02-22T09:22:52.872Z,62.91
2023-02-22T09:25:23.096Z,62.61
2023-02-22T09:27:52.151Z,63.55
2023-02-22T09:30:32.472Z,61.48
2023-02-22T09:33:06.386Z,61.61
2023-02-22T09:35:36.587Z,61.19
2023-02-22T09:38:06.524Z,59.91
2023-02-22T09:40:41.241Z,59.44
2023-02-22T09:43:21.555Z,59.02
2023-02-22T09:46:13.871Z,59.10
2023-02-22T09:49:03.554Z,57.91
2023-02-22T09:51:42.409Z,57.24
2023-02-22T09:54:34.462Z,56.65
2023-02-22T09:57:08.901Z,56.93
2023-02-22T09:59:48.766Z,56.79
2023-02-22T10:02:36.150Z,55.92
2023-02-22T10:05:14.111Z,55.46
2023-02-22T10:07:48.090Z,55.63
2023-02-22T10:10:19.624Z,54.61
2023-02-22T10:12:59.048Z,54.55
2023-02-22T10:15:51.847Z,54.08
2023-02-22T10:18:46.831Z,53.51
2023-02-22T10:21:22.075Z,53.10
2023-02-22T10:24:14.778Z,53.44
2023-02-22T10:26:45.100Z,53.10
2023-02-22T10:29:19.133Z,52.66
2023-02-22T10:31:52.293Z,52.19
2023-02-22T10:34:25.678Z,51.70
2023-02-22T10:37:08.387Z,51.39
2023-02-22T10:39:39.052Z,50.76
2023-02-22T10:42:08.322Z,50.70
2023-02-22T10:44:37.021Z,50.89
2023-02-22T10:47:11.051Z,50.44
2023-02-22T10:49:46.530Z,50.86
2023-02-22T10:52:22.530Z,50.63
2023-02-22T10:54:52.182Z,49.87
2023-02-22T10:57:32.210Z,49.14
2023-02-22T11:00:15.696Z,49.39
2023-02-22T11:02:53.949Z,50.15
2023-02-22T11:05:30.047Z,48.75
2023-02-22T11:08:21.471Z,48.06
2023-02-22T11:10:54.144Z,49.01
2023-02-22T11:13:30.332Z,46.67
2023-02-22T11:16:27.201Z,46.04
2023-02-22T11:19:03.155Z,45.32
2023-02-22T11:21:32.814Z,46.24
2023-02-22T11:24:08.786Z,45.62
2023-02-22T11:27:01.460Z,44.56
2023-02-22T11:29:34.879Z,44.22
2023-02-22T11:32:13.675Z,44.56
2023-02-22T11:34:42.959Z,43.33
2023-02-22T11:37:33.783Z,42.25
2023-02-22T11:40:19.769Z,42.46
2023-02-22T11:42:47.907Z,42.32
2023-02-22T11:45:25.050Z,42.76
2023-02-22T11:47:59.437Z,43.16
2023-02-22T11:50:28.036Z,41.35
2023-02-22T11:53:06.468Z,39.77
2023-02-22T11:55:45.210Z,39.94
2023-02-22T11:58:46.647Z,38.88
2023-02-22T12:01:35.451Z,37.70
2023-02-22T12:04:23.051Z,38.02
2023-02-22T12:06:51.572Z,39.19
2023-02-22T12:09:25.428Z,38.26
2023-02-22T12:12:15.499Z,35.62
2023-02-22T12:15:01.356Z,36.09
2023-02-22T12:17:43.692Z,36.84
2023-02-22T12:20:22.341Z,36.08
2023-02-22T12:23:03.291Z,34.29
2023-02-22T12:25:42.260Z,34.46
2023-02-22T12:28:26.984Z,32.92
2023-02-22T12:31:28.956Z,32.05
2023-02-22T12:34:38.479Z,33.37
2023-02-22T12:37:23.331Z,34.78
2023-02-22T12:40:08.745Z,32.51
2023-02-22T12:43:22.871Z,33.57
2023-02-22T12:46:12.834Z,33.26
2023-02-22T12:48:49.953Z,33.92
2023-02-22T12:51:30.157Z,32.12
2023-02-22T12:54:40.501Z,30.55
2023-02-22T12:57:26.257Z,31.16
2023-02-22T13:00:02.790Z,30.34
2023-02-22T13:06:05.399Z,36.83
2023-02-22T13:08:51.795Z,33.02
2023-02-22T13:11:37.669Z,31.39
2023-02-22T13:14:30.314Z,34.48
2023-02-22T13:17:05.999Z,32.19
2023-02-22T13:19:49.269Z,35.35
2023-02-22T13:22:25.664Z,31.03
2023-02-22T13:24:56.815Z,31.39
2023-02-22T13:27:51.267Z,29.91
2023-02-22T13:30:24.411Z,32.69
2023-02-22T13:33:19.403Z,31.35
2023-02-22T13:35:59.068Z,30.71
2023-02-22T13:38:33.612Z,33.47
2023-02-22T13:41:03.415Z,31.87
2023-02-22T13:43:52.119Z,30.53
2023-02-22T13:46:37.794Z,28.16
2023-02-22T13:49:20.886Z,29.78
2023-02-22T13:52:02.098Z,28.82
2023-02-22T13:55:03.153Z,28.61
2023-02-22T13:57:39.817Z,28.32
2023-02-22T14:00:16.670Z,28.70
2023-02-22T14:03:02.039Z,29.43
2023-02-22T14:05:50.387Z,31.09
2023-02-22T14:08:17.657Z,29.01
2023-02-22T14:10:51.316Z,28.79
2023-02-22T14:13:22.719Z,28.41
2023-02-22T14:16:00.527Z,26.19
2023-02-22T14:18:36.822Z,25.42
2023-02-22T14:21:20.164Z,25.80
2023-02-22T14:23:50.919Z,28.30
2023-02-22T14:26:35.019Z,27.07
2023-02-22T14:29:08.167Z,28.06
2023-02-22T14:31:41.407Z,29.00
2023-02-22T14:34:16.228Z,29.80
2023-02-22T14:37:02.876Z,28.38
2023-02-22T14:39:41.603Z,27.81
2023-02-22T14:42:30.242Z,27.60
2023-02-22T14:45:10.169Z,27.29
2023-02-22T14:47:49.784Z,29.26
2023-02-22T14:50:24.261Z,30.43
2023-02-22T14:53:07.143Z,27.84
2023-02-22T14:55:42.646Z,27.06
2023-02-22T14:58:19.907Z,30.28
2023-02-22T15:00:49.537Z,29.25
2023-02-22T15:03:29.130Z,29.14
2023-02-22T15:05:59.874Z,30.54
2023-02-22T15:08:28.768Z,29.51
2023-02-22T15:10:55.749Z,29.16
2023-02-22T15:13:28.420Z,30.53
2023-02-22T15:16:01.877Z,46.77
2023-02-22T15:19:00.123Z,41.63
2023-02-22T15:21:30.250Z,44.23
2023-02-22T15:24:08.315Z,47.85
2023-02-22T15:27:00.330Z,40.92
2023-02-22T15:29:36.234Z,37.25
2023-02-22T15:32:29.613Z,73.36
2023-02-22T15:35:12.602Z,65.86
2023-02-22T15:37:40.261Z,59.75
2023-02-22T15:40:21.117Z,57.32
2023-02-22T15:42:58.547Z,55.64
2023-02-22T15:45:26.362Z,64.79
2023-02-22T15:47:56.609Z,58.31
2023-02-22T15:50:28.853Z,57.34
2023-02-22T15:53:07.736Z,47.81
2023-02-22T15:55:44.116Z,56.52
2023-02-22T15:58:24.101Z,55.37
2023-02-22T16:01:05.485Z,45.12
2023-02-22T16:03:45.147Z,44.21
2023-02-22T16:06:18.220Z,42.95
2023-02-22T16:08:55.184Z,42.45
2023-02-22T16:11:33.059Z,39.78
2023-02-22T16:14:05.233Z,39.66
2023-02-22T16:16:37.576Z,36.97
2023-02-22T16:19:25.682Z,36.27
2023-02-22T16:21:58.586Z,37.05
2023-02-22T16:24:33.951Z,38.07
2023-02-22T16:27:06.952Z,37.80
2023-02-22T16:29:34.139Z,38.75
2023-02-22T16:32:02.089Z,38.90
2023-02-22T16:34:29.243Z,41.21
2023-02-22T16:36:56.984Z,40.70
2023-02-22T16:39:27.382Z,41.09
2023-02-22T16:41:57.681Z,41.70
2023-02-22T16:44:25.734Z,42.39
2023-02-22T16:47:00.869Z,42.39
2023-02-22T16:49:28.017Z,42.80
2023-02-22T16:51:59.038Z,44.01
2023-02-22T16:54:29.194Z,44.67
2023-02-22T16:57:00.490Z,44.71
2023-02-22T16:59:28.481Z,46.25
2023-02-22T17:01:58.972Z,46.49
2023-02-22T17:04:29.651Z,47.15
2023-02-22T17:06:59.243Z,47.00
2023-02-22T17:09:26.603Z,47.54
2023-02-22T17:11:54.208Z,47.06
2023-02-22T17:14:24.576Z,55.71
2023-02-22T17:16:52.142Z,50.67
2023-02-22T17:19:24.617Z,49.64
2023-02-22T17:21:52.174Z,50.22
2023-02-22T17:24:23.195Z,50.40
2023-02-22T17:26:53.241Z,50.90
2023-02-22T17:29:20.824Z,50.69
2023-02-22T17:31:49.134Z,50.83
2023-02-22T17:34:16.485Z,50.92
2023-02-22T17:36:43.927Z,51.26
2023-02-22T17:39:11.313Z,52.79
2023-02-22T17:41:40.630Z,54.03
2023-02-22T17:44:08.592Z,52.89
2023-02-22T17:46:36.980Z,52.88
2023-02-22T17:49:04.006Z,53.35
2023-02-22T17:51:31.039Z,52.79
2023-02-22T17:53:58.315Z,54.34
2023-02-22T17:56:25.672Z,62.24
2023-02-22T17:58:55.106Z,59.72
2023-02-22T18:01:27.346Z,64.84
2023-02-22T18:03:56.113Z,67.71
2023-02-22T18:06:27.286Z,59.15
2023-02-22T18:08:56.793Z,60.37
2023-02-22T18:11:28.503Z,58.20
2023-02-22T18:13:57.127Z,56.68
2023-02-22T18:16:28.509Z,54.67
2023-02-22T18:18:56.499Z,53.80
2023-02-22T18:21:24.642Z,53.75
2023-02-22T18:23:59.125Z,53.94
2023-02-22T18:26:26.797Z,54.02
2023-02-22T18:28:54.089Z,54.39
2023-02-22T18:31:22.541Z,54.39
2023-02-22T18:33:54.887Z,54.41
2023-02-22T18:36:23.531Z,54.13
2023-02-22T18:38:53.257Z,54.51
2023-02-22T18:41:25.985Z,54.76
2023-02-22T18:43:55.631Z,55.34
2023-02-22T18:46:24.470Z,56.07
2023-02-22T18:48:56.856Z,55.66
2023-02-22T18:51:24.939Z,55.98
2023-02-22T18:53:57.154Z,56.91
2023-02-22T18:56:29.846Z,56.13
2023-02-22T18:59:02.762Z,57.07
2023-02-22T19:01:31.483Z,58.34
2023-02-22T19:04:00.469Z,58.35
2023-02-22T19:06:27.521Z,57.34
2023-02-22T19:08:54.573Z,57.92
2023-02-22T19:11:24.151Z,57.96
2023-02-22T19:13:54.160Z,59.55
2023-02-22T19:16:23.442Z,60.01
2023-02-22T19:18:52.913Z,60.06
2023-02-22T19:21:20.988Z,65.37
2023-02-22T19:23:49.077Z,62.46
2023-02-22T19:26:27.753Z,61.52
2023-02-22T19:28:56.870Z,61.75
2023-02-22T19:31:34.107Z,64.47
2023-02-22T19:34:04.045Z,62.82
2023-02-22T19:36:32.174Z,61.77
2023-02-22T19:39:02.853Z,61.42
2023-02-22T19:41:31.483Z,61.22
2023-02-22T19:43:59.010Z,63.21
2023-02-22T19:46:26.849Z,63.02
2023-02-22T19:48:58.013Z,63.60
2023-02-22T19:51:28.928Z,63.89
2023-02-22T19:54:07.265Z,64.31
2023-02-22T19:56:35.696Z,64.65
2023-02-22T19:59:17.039Z,66.83
2023-02-22T20:01:44.734Z,66.60
2023-02-22T20:04:18.673Z,67.56
2023-02-22T20:06:47.137Z,68.17
2023-02-22T20:09:18.454Z,67.88
2023-02-22T20:11:47.632Z,67.41
2023-02-22T20:14:26.523Z,68.43
2023-02-22T20:16:55.657Z,69.03
2023-02-22T20:19:23.615Z,71.12
2023-02-22T20:21:52.701Z,71.04
2023-02-22T20:24:20.277Z,73.56
2023-02-22T20:26:47.773Z,72.87
2023-02-22T20:29:19.503Z,74.28
2023-02-22T20:31:52.741Z,76.92
2023-02-22T20:34:20.199Z,81.99
2023-02-22T20:36:47.211Z,82.99
2023-02-22T20:39:15.128Z,83.49
2023-02-22T20:41:44.565Z,81.09
2023-02-22T20:44:16.546Z,77.18
2023-02-22T20:46:45.499Z,76.57
2023-02-22T20:49:17.616Z,76.35
2023-02-22T20:51:48.549Z,77.13
2023-02-22T20:54:17.018Z,77.96
2023-02-22T20:56:45.922Z,79.88
2023-02-22T20:59:15.412Z,79.82
2023-02-22T21:01:42.724Z,77.30
2023-02-22T21:04:11.571Z,77.62
2023-02-22T21:06:40.457Z,83.37
2023-02-22T21:09:13.486Z,92.02
2023-02-22T21:11:40.827Z,92.42
2023-02-22T21:14:09.286Z,89.90
2023-02-22T21:16:37.669Z,89.95
2023-02-22T21:19:07.263Z,98.50
2023-02-22T21:21:36.485Z,98.05
2023-02-22T21:24:08.130Z,94.04
2023-02-22T21:26:36.410Z,92.15
2023-02-22T21:29:06.635Z,89.59
2023-02-22T21:31:37.234Z,87.16
2023-02-22T21:34:04.984Z,84.78
2023-02-22T21:36:32.508Z,84.85
2023-02-22T21:39:03.481Z,86.37
2023-02-22T21:41:31.588Z,92.10
2023-02-22T21:43:59.871Z,90.99
2023-02-22T21:46:29.423Z,86.97
2023-02-22T21:48:59.094Z,87.94
2023-02-22T21:51:34.048Z,87.92
2023-02-22T21:54:03.945Z,88.10
2023-02-22T21:56:34.624Z,90.33
2023-02-22T21:59:25.614Z,89.46
2023-02-22T22:01:58.309Z,91.47
2023-02-22T22:04:31.654Z,97.72
2023-02-22T22:07:00.420Z,96.75
2023-02-22T22:09:33.281Z,100.00
2023-02-22T22:12:05.357Z,99.14
2023-02-22T22:14:34.487Z,100.00
2023-02-22T22:17:03.193Z,99.83
2023-02-22T22:19:34.418Z,100.00
2023-02-22T22:22:01.848Z,100.00
2023-02-22T22:24:32.327Z,100.00
2023-02-22T22:27:03.903Z,100.00
2023-02-22T22:29:32.517Z,100.00
2023-02-22T22:32:00.102Z,100.00
2023-02-22T22:34:29.813Z,100.00
2023-02-22T22:36:58.643Z,100.00
2023-02-22T22:39:27.058Z,100.00
2023-02-22T22:41:54.219Z,100.00
2023-02-22T22:44:23.883Z,100.00
2023-02-22T22:46:53.958Z,100.00
2023-02-22T22:49:25.819Z,100.00
2023-02-22T22:51:53.648Z,100.00
2023-02-22T22:54:20.635Z,100.00
2023-02-22T22:56:47.648Z,100.00
2023-02-22T22:59:15.486Z,100.00
2023-02-22T23:01:47.102Z,100.00
2023-02-22T23:04:16.602Z,100.00
2023-02-22T23:06:50.753Z,100.00
2023-02-22T23:09:30.615Z,100.00
2023-02-22T23:12:09.040Z,100.00
2023-02-22T23:14:39.197Z,100.00
2023-02-22T23:17:15.425Z,100.00
2023-02-22T23:19:47.008Z,100.00
2023-02-22T23:22:14.607Z,100.00
2023-02-22T23:24:41.832Z,100.00
2023-02-22T23:27:10.978Z,100.00
2023-02-22T23:29:40.752Z,100.00
2023-02-22T23:32:09.131Z,100.00
2023-02-22T23:34:37.178Z,100.00
2023-02-22T23:37:04.222Z,100.00
2023-02-22T23:39:31.239Z,100.00
2023-02-22T23:42:03.508Z,100.00
2023-02-22T23:44:30.874Z,100.00
2023-02-22T23:46:58.057Z,100.00
2023-02-22T23:49:39.024Z,100.00
2023-02-22T23:52:07.525Z,100.00
2023-02-22T23:54:36.624Z,100.00
2023-02-22T23:57:04.876Z,100.00
2023-02-22T23:59:33.598Z,100.00
